sensor_id;sensor_type;location;lat;lon;timestamp;pressure;altitude;pressure_sealevel;temperature;humidity
60267;BME280;46125;61.360;-149.532;2023-07-13T00:00:02;100272.21;;;21.44;46.39
60267;BME280;46125;61.360;-149.532;2023-07-13T00:02:36;100277.80;;;21.25;45.42
60267;BME280;46125;61.360;-149.532;2023-07-13T00:05:05;100273.02;;;21.49;44.15
60267;BME280;46125;61.360;-149.532;2023-07-13T00:07:34;100276.34;;;20.31;46.29
60267;BME280;46125;61.360;-149.532;2023-07-13T00:10:03;100273.27;;;21.62;43.53
60267;BME280;46125;61.360;-149.532;2023-07-13T00:12:38;100274.59;;;20.91;48.77
60267;BME280;46125;61.360;-149.532;2023-07-13T00:15:12;100271.58;;;20.45;45.97
60267;BME280;46125;61.360;-149.532;2023-07-13T00:17:41;100266.42;;;22.33;44.20
60267;BME280;46125;61.360;-149.532;2023-07-13T00:20:11;100274.68;;;20.95;47.15
60267;BME280;46125;61.360;-149.532;2023-07-13T00:22:39;100276.72;;;20.99;48.56
60267;BME280;46125;61.360;-149.532;2023-07-13T00:25:10;100274.31;;;21.28;47.09
60267;BME280;46125;61.360;-149.532;2023-07-13T00:27:38;100271.39;;;21.62;45.26
60267;BME280;46125;61.360;-149.532;2023-07-13T00:30:08;100268.09;;;21.54;44.37
60267;BME280;46125;61.360;-149.532;2023-07-13T00:32:37;100262.17;;;22.12;47.32
60267;BME280;46125;61.360;-149.532;2023-07-13T00:35:05;100259.76;;;21.62;46.16
60267;BME280;46125;61.360;-149.532;2023-07-13T00:37:34;100257.79;;;22.90;42.75
60267;BME280;46125;61.360;-149.532;2023-07-13T00:40:03;100259.76;;;21.11;44.68
60267;BME280;46125;61.360;-149.532;2023-07-13T00:42:31;100254.65;;;21.37;46.09
60267;BME280;46125;61.360;-149.532;2023-07-13T00:45:06;100257.69;;;20.43;44.36
60267;BME280;46125;61.360;-149.532;2023-07-13T00:47:35;100257.92;;;19.84;47.01
60267;BME280;46125;61.360;-149.532;2023-07-13T00:50:04;100259.46;;;20.55;46.12
60267;BME280;46125;61.360;-149.532;2023-07-13T00:52:36;100259.42;;;21.27;46.33
60267;BME280;46125;61.360;-149.532;2023-07-13T00:55:06;100256.26;;;21.56;44.13
60267;BME280;46125;61.360;-149.532;2023-07-13T00:57:35;100253.40;;;21.36;42.26
60267;BME280;46125;61.360;-149.532;2023-07-13T01:00:05;100255.46;;;22.31;42.73
60267;BME280;46125;61.360;-149.532;2023-07-13T01:02:45;100259.80;;;20.79;43.61
60267;BME280;46125;61.360;-149.532;2023-07-13T01:05:21;100252.80;;;22.33;44.01
60267;BME280;46125;61.360;-149.532;2023-07-13T01:07:56;100252.23;;;21.40;42.95
60267;BME280;46125;61.360;-149.532;2023-07-13T01:10:26;100254.10;;;22.32;45.59
60267;BME280;46125;61.360;-149.532;2023-07-13T01:12:55;100253.49;;;22.95;41.29
60267;BME280;46125;61.360;-149.532;2023-07-13T01:15:41;100253.68;;;22.22;44.18
60267;BME280;46125;61.360;-149.532;2023-07-13T01:18:12;100252.70;;;22.40;44.60
60267;BME280;46125;61.360;-149.532;2023-07-13T01:20:52;100254.90;;;22.62;43.57
60267;BME280;46125;61.360;-149.532;2023-07-13T01:23:22;100252.51;;;21.49;43.98
60267;BME280;46125;61.360;-149.532;2023-07-13T01:25:51;100254.65;;;20.21;44.52
60267;BME280;46125;61.360;-149.532;2023-07-13T01:28:21;100250.96;;;21.87;44.89
60267;BME280;46125;61.360;-149.532;2023-07-13T01:30:49;100252.74;;;22.51;46.03
60267;BME280;46125;61.360;-149.532;2023-07-13T01:33:18;100251.24;;;22.80;46.31
60267;BME280;46125;61.360;-149.532;2023-07-13T01:35:47;100250.53;;;22.16;46.53
60267;BME280;46125;61.360;-149.532;2023-07-13T01:38:20;100250.03;;;22.75;47.22
60267;BME280;46125;61.360;-149.532;2023-07-13T01:40:48;100249.11;;;22.98;45.41
60267;BME280;46125;61.360;-149.532;2023-07-13T01:43:17;100248.77;;;22.62;47.00
60267;BME280;46125;61.360;-149.532;2023-07-13T01:45:46;100251.14;;;22.89;47.55
60267;BME280;46125;61.360;-149.532;2023-07-13T01:48:14;100247.71;;;22.90;45.00
60267;BME280;46125;61.360;-149.532;2023-07-13T01:50:43;100246.85;;;22.46;44.66
60267;BME280;46125;61.360;-149.532;2023-07-13T01:53:12;100246.41;;;22.62;46.26
60267;BME280;46125;61.360;-149.532;2023-07-13T01:55:41;100244.74;;;23.66;42.35
60267;BME280;46125;61.360;-149.532;2023-07-13T01:58:09;100244.96;;;22.64;45.29
60267;BME280;46125;61.360;-149.532;2023-07-13T02:00:38;100245.80;;;22.69;44.19
60267;BME280;46125;61.360;-149.532;2023-07-13T02:03:06;100245.12;;;23.22;44.49
60267;BME280;46125;61.360;-149.532;2023-07-13T02:05:34;100246.18;;;22.97;45.87
60267;BME280;46125;61.360;-149.532;2023-07-13T02:08:03;100247.44;;;22.73;46.89
60267;BME280;46125;61.360;-149.532;2023-07-13T02:10:37;100246.00;;;21.91;47.77
60267;BME280;46125;61.360;-149.532;2023-07-13T02:13:06;100243.17;;;23.04;43.36
60267;BME280;46125;61.360;-149.532;2023-07-13T02:15:39;100245.41;;;22.55;45.25
60267;BME280;46125;61.360;-149.532;2023-07-13T02:18:07;100249.08;;;21.07;48.20
60267;BME280;46125;61.360;-149.532;2023-07-13T02:20:36;100244.58;;;22.12;47.40
60267;BME280;46125;61.360;-149.532;2023-07-13T02:23:05;100247.95;;;22.31;48.06
60267;BME280;46125;61.360;-149.532;2023-07-13T02:25:38;100247.75;;;22.59;48.22
60267;BME280;46125;61.360;-149.532;2023-07-13T02:28:07;100245.34;;;22.71;46.34
60267;BME280;46125;61.360;-149.532;2023-07-13T02:30:36;100242.68;;;22.99;43.38
60267;BME280;46125;61.360;-149.532;2023-07-13T02:33:05;100245.12;;;20.62;47.70
60267;BME280;46125;61.360;-149.532;2023-07-13T02:35:38;100243.90;;;22.25;46.02
60267;BME280;46125;61.360;-149.532;2023-07-13T02:38:07;100245.03;;;22.58;45.77
60267;BME280;46125;61.360;-149.532;2023-07-13T02:40:35;100245.79;;;22.76;46.35
60267;BME280;46125;61.360;-149.532;2023-07-13T02:43:04;100243.82;;;22.06;46.77
60267;BME280;46125;61.360;-149.532;2023-07-13T02:45:33;100240.52;;;22.01;48.25
60267;BME280;46125;61.360;-149.532;2023-07-13T02:48:01;100241.31;;;22.11;46.58
60267;BME280;46125;61.360;-149.532;2023-07-13T02:50:29;100240.55;;;22.02;47.25
60267;BME280;46125;61.360;-149.532;2023-07-13T02:52:58;100241.94;;;21.24;49.66
60267;BME280;46125;61.360;-149.532;2023-07-13T02:55:26;100242.87;;;21.73;47.83
60267;BME280;46125;61.360;-149.532;2023-07-13T02:57:55;100246.74;;;21.96;47.23
60267;BME280;46125;61.360;-149.532;2023-07-13T03:00:23;100242.98;;;22.21;45.45
60267;BME280;46125;61.360;-149.532;2023-07-13T03:02:52;100243.96;;;22.33;45.51
60267;BME280;46125;61.360;-149.532;2023-07-13T03:05:20;100244.03;;;22.44;46.63
60267;BME280;46125;61.360;-149.532;2023-07-13T03:07:49;100242.93;;;21.95;46.58
60267;BME280;46125;61.360;-149.532;2023-07-13T03:10:22;100242.49;;;22.04;45.32
60267;BME280;46125;61.360;-149.532;2023-07-13T03:12:51;100244.03;;;21.77;47.51
60267;BME280;46125;61.360;-149.532;2023-07-13T03:15:19;100242.76;;;21.40;46.34
60267;BME280;46125;61.360;-149.532;2023-07-13T03:17:47;100244.00;;;20.25;46.17
60267;BME280;46125;61.360;-149.532;2023-07-13T03:20:21;100239.89;;;21.69;46.76
60267;BME280;46125;61.360;-149.532;2023-07-13T03:22:50;100237.52;;;21.80;48.42
60267;BME280;46125;61.360;-149.532;2023-07-13T03:25:19;100237.84;;;21.68;48.78
60267;BME280;46125;61.360;-149.532;2023-07-13T03:27:47;100245.11;;;21.19;48.18
60267;BME280;46125;61.360;-149.532;2023-07-13T03:30:16;100242.90;;;21.68;46.39
60267;BME280;46125;61.360;-149.532;2023-07-13T03:32:44;100241.98;;;22.03;47.26
60267;BME280;46125;61.360;-149.532;2023-07-13T03:35:13;100239.39;;;22.32;44.54
60267;BME280;46125;61.360;-149.532;2023-07-13T03:37:41;100240.27;;;22.48;46.56
60267;BME280;46125;61.360;-149.532;2023-07-13T03:40:15;100232.39;;;22.18;46.12
60267;BME280;46125;61.360;-149.532;2023-07-13T03:42:44;100232.44;;;21.95;47.83
60267;BME280;46125;61.360;-149.532;2023-07-13T03:45:12;100235.20;;;22.55;46.28
60267;BME280;46125;61.360;-149.532;2023-07-13T03:47:46;100236.43;;;22.27;46.89
60267;BME280;46125;61.360;-149.532;2023-07-13T03:50:14;100236.09;;;22.84;42.89
60267;BME280;46125;61.360;-149.532;2023-07-13T03:52:43;100237.71;;;23.24;45.32
60267;BME280;46125;61.360;-149.532;2023-07-13T03:55:11;100237.21;;;20.90;48.05
60267;BME280;46125;61.360;-149.532;2023-07-13T03:57:40;100235.83;;;22.51;48.19
60267;BME280;46125;61.360;-149.532;2023-07-13T04:00:10;100233.21;;;23.11;48.03
60267;BME280;46125;61.360;-149.532;2023-07-13T04:02:39;100234.46;;;23.02;45.28
60267;BME280;46125;61.360;-149.532;2023-07-13T04:05:08;100238.08;;;22.72;46.76
60267;BME280;46125;61.360;-149.532;2023-07-13T04:07:36;100239.00;;;22.60;48.40
60267;BME280;46125;61.360;-149.532;2023-07-13T04:10:10;100234.61;;;22.25;48.63
60267;BME280;46125;61.360;-149.532;2023-07-13T04:12:38;100234.72;;;22.47;47.53
60267;BME280;46125;61.360;-149.532;2023-07-13T04:15:08;100234.33;;;22.66;46.46
60267;BME280;46125;61.360;-149.532;2023-07-13T04:17:36;100239.79;;;23.03;45.61
60267;BME280;46125;61.360;-149.532;2023-07-13T04:20:06;100237.10;;;22.89;47.68
60267;BME280;46125;61.360;-149.532;2023-07-13T04:22:34;100234.94;;;22.77;48.43
60267;BME280;46125;61.360;-149.532;2023-07-13T04:25:03;100234.22;;;21.70;48.64
60267;BME280;46125;61.360;-149.532;2023-07-13T04:27:31;100232.85;;;22.50;48.94
60267;BME280;46125;61.360;-149.532;2023-07-13T04:30:02;100232.43;;;21.38;52.25
60267;BME280;46125;61.360;-149.532;2023-07-13T04:32:31;100231.88;;;20.37;54.95
60267;BME280;46125;61.360;-149.532;2023-07-13T04:35:00;100231.85;;;20.16;55.88
60267;BME280;46125;61.360;-149.532;2023-07-13T04:37:28;100228.00;;;20.09;57.83
60267;BME280;46125;61.360;-149.532;2023-07-13T04:39:56;100224.01;;;19.98;56.63
60267;BME280;46125;61.360;-149.532;2023-07-13T04:42:25;100226.69;;;19.73;58.35
60267;BME280;46125;61.360;-149.532;2023-07-13T04:44:53;100224.74;;;20.44;56.16
60267;BME280;46125;61.360;-149.532;2023-07-13T04:47:22;100227.37;;;20.02;54.67
60267;BME280;46125;61.360;-149.532;2023-07-13T04:49:50;100229.70;;;21.05;51.47
60267;BME280;46125;61.360;-149.532;2023-07-13T04:52:19;100230.04;;;21.30;49.68
60267;BME280;46125;61.360;-149.532;2023-07-13T04:54:47;100231.56;;;21.26;47.77
60267;BME280;46125;61.360;-149.532;2023-07-13T04:57:16;100229.12;;;21.97;49.17
60267;BME280;46125;61.360;-149.532;2023-07-13T04:59:44;100228.33;;;21.62;49.37
60267;BME280;46125;61.360;-149.532;2023-07-13T05:02:12;100227.70;;;21.65;51.13
60267;BME280;46125;61.360;-149.532;2023-07-13T05:04:41;100228.85;;;21.51;52.07
60267;BME280;46125;61.360;-149.532;2023-07-13T05:07:15;100229.26;;;21.48;50.11
60267;BME280;46125;61.360;-149.532;2023-07-13T05:09:43;100226.16;;;21.63;51.00
60267;BME280;46125;61.360;-149.532;2023-07-13T05:12:17;100225.62;;;21.51;51.98
60267;BME280;46125;61.360;-149.532;2023-07-13T05:14:50;100224.18;;;21.54;52.10
60267;BME280;46125;61.360;-149.532;2023-07-13T05:17:24;100219.78;;;21.34;52.08
60267;BME280;46125;61.360;-149.532;2023-07-13T05:19:57;100224.51;;;20.82;53.94
60267;BME280;46125;61.360;-149.532;2023-07-13T05:22:31;100224.09;;;20.81;53.36
60267;BME280;46125;61.360;-149.532;2023-07-13T05:25:00;100222.78;;;21.91;53.03
60267;BME280;46125;61.360;-149.532;2023-07-13T05:27:28;100225.40;;;21.66;51.52
60267;BME280;46125;61.360;-149.532;2023-07-13T05:29:57;100225.85;;;21.90;50.37
60267;BME280;46125;61.360;-149.532;2023-07-13T05:32:30;100225.45;;;22.38;49.40
60267;BME280;46125;61.360;-149.532;2023-07-13T05:34:59;100225.46;;;22.05;49.37
60267;BME280;46125;61.360;-149.532;2023-07-13T05:37:27;100226.19;;;22.59;49.45
60267;BME280;46125;61.360;-149.532;2023-07-13T05:39:55;100229.78;;;22.11;50.60
60267;BME280;46125;61.360;-149.532;2023-07-13T05:42:29;100234.10;;;21.74;49.03
60267;BME280;46125;61.360;-149.532;2023-07-13T05:44:57;100236.57;;;21.84;50.28
60267;BME280;46125;61.360;-149.532;2023-07-13T05:47:26;100241.02;;;21.97;50.76
60267;BME280;46125;61.360;-149.532;2023-07-13T05:49:54;100240.25;;;22.18;50.46
60267;BME280;46125;61.360;-149.532;2023-07-13T05:52:23;100239.76;;;21.65;51.30
60267;BME280;46125;61.360;-149.532;2023-07-13T05:54:51;100240.59;;;20.76;52.44
60267;BME280;46125;61.360;-149.532;2023-07-13T05:57:20;100237.91;;;21.42;52.24
60267;BME280;46125;61.360;-149.532;2023-07-13T05:59:48;100241.27;;;21.58;50.99
60267;BME280;46125;61.360;-149.532;2023-07-13T06:02:22;100242.15;;;21.80;51.85
60267;BME280;46125;61.360;-149.532;2023-07-13T06:04:50;100246.31;;;22.05;49.80
60267;BME280;46125;61.360;-149.532;2023-07-13T06:07:20;100248.42;;;21.41;52.26
60267;BME280;46125;61.360;-149.532;2023-07-13T06:09:48;100249.69;;;21.26;52.16
60267;BME280;46125;61.360;-149.532;2023-07-13T06:12:16;100249.00;;;21.62;52.00
60267;BME280;46125;61.360;-149.532;2023-07-13T06:14:45;100249.05;;;21.82;51.86
60267;BME280;46125;61.360;-149.532;2023-07-13T06:17:13;100247.42;;;21.84;51.16
60267;BME280;46125;61.360;-149.532;2023-07-13T06:19:42;100250.40;;;21.57;49.21
60267;BME280;46125;61.360;-149.532;2023-07-13T06:22:10;100254.03;;;21.70;47.66
60267;BME280;46125;61.360;-149.532;2023-07-13T06:24:40;100255.35;;;21.11;48.28
60267;BME280;46125;61.360;-149.532;2023-07-13T06:27:09;100257.19;;;21.33;48.35
60267;BME280;46125;61.360;-149.532;2023-07-13T06:29:38;100258.11;;;21.11;49.84
60267;BME280;46125;61.360;-149.532;2023-07-13T06:32:08;100259.97;;;21.49;51.17
60267;BME280;46125;61.360;-149.532;2023-07-13T06:34:36;100262.72;;;21.53;51.12
60267;BME280;46125;61.360;-149.532;2023-07-13T06:37:05;100261.30;;;21.39;50.01
60267;BME280;46125;61.360;-149.532;2023-07-13T06:39:33;100261.33;;;21.39;49.37
60267;BME280;46125;61.360;-149.532;2023-07-13T06:42:02;100261.80;;;20.96;49.48
60267;BME280;46125;61.360;-149.532;2023-07-13T06:44:30;100263.55;;;20.88;50.84
60267;BME280;46125;61.360;-149.532;2023-07-13T06:46:59;100269.40;;;21.16;51.94
60267;BME280;46125;61.360;-149.532;2023-07-13T06:49:27;100268.56;;;21.02;52.19
60267;BME280;46125;61.360;-149.532;2023-07-13T06:51:55;100270.84;;;20.90;52.33
60267;BME280;46125;61.360;-149.532;2023-07-13T06:54:24;100273.77;;;20.44;52.61
60267;BME280;46125;61.360;-149.532;2023-07-13T06:56:52;100275.98;;;20.82;52.02
60267;BME280;46125;61.360;-149.532;2023-07-13T06:59:21;100278.07;;;20.29;53.23
60267;BME280;46125;61.360;-149.532;2023-07-13T07:01:49;100276.19;;;20.59;52.15
60267;BME280;46125;61.360;-149.532;2023-07-13T07:04:17;100274.66;;;20.05;51.81
60267;BME280;46125;61.360;-149.532;2023-07-13T07:06:45;100278.27;;;20.26;52.53
60267;BME280;46125;61.360;-149.532;2023-07-13T07:09:14;100279.37;;;20.58;52.99
60267;BME280;46125;61.360;-149.532;2023-07-13T07:11:43;100277.37;;;19.57;55.28
60267;BME280;46125;61.360;-149.532;2023-07-13T07:14:11;100278.05;;;18.89;57.15
60267;BME280;46125;61.360;-149.532;2023-07-13T07:16:39;100280.28;;;19.70;55.25
60267;BME280;46125;61.360;-149.532;2023-07-13T07:19:08;100280.70;;;19.69;55.42
60267;BME280;46125;61.360;-149.532;2023-07-13T07:21:36;100284.79;;;19.32;55.95
60267;BME280;46125;61.360;-149.532;2023-07-13T07:24:05;100286.63;;;19.36;56.43
60267;BME280;46125;61.360;-149.532;2023-07-13T07:26:33;100288.56;;;19.40;56.62
60267;BME280;46125;61.360;-149.532;2023-07-13T07:29:02;100290.70;;;19.48;56.68
60267;BME280;46125;61.360;-149.532;2023-07-13T07:31:32;100287.58;;;19.66;55.52
60267;BME280;46125;61.360;-149.532;2023-07-13T07:34:02;100291.38;;;19.16;56.53
60267;BME280;46125;61.360;-149.532;2023-07-13T07:36:32;100289.86;;;19.27;56.92
60267;BME280;46125;61.360;-149.532;2023-07-13T07:39:00;100293.00;;;18.95;58.31
60267;BME280;46125;61.360;-149.532;2023-07-13T07:41:28;100294.72;;;18.19;59.70
60267;BME280;46125;61.360;-149.532;2023-07-13T07:43:57;100300.62;;;16.51;64.16
60267;BME280;46125;61.360;-149.532;2023-07-13T07:46:26;100295.84;;;17.82;61.98
60267;BME280;46125;61.360;-149.532;2023-07-13T07:48:55;100293.85;;;18.37;60.25
60267;BME280;46125;61.360;-149.532;2023-07-13T07:51:23;100295.35;;;18.63;58.69
60267;BME280;46125;61.360;-149.532;2023-07-13T07:53:52;100296.29;;;19.05;57.43
60267;BME280;46125;61.360;-149.532;2023-07-13T07:56:20;100297.45;;;19.03;57.36
60267;BME280;46125;61.360;-149.532;2023-07-13T07:58:50;100297.56;;;19.10;57.03
60267;BME280;46125;61.360;-149.532;2023-07-13T08:01:18;100300.73;;;19.13;56.92
60267;BME280;46125;61.360;-149.532;2023-07-13T08:03:47;100305.06;;;19.19;54.92
60267;BME280;46125;61.360;-149.532;2023-07-13T08:06:15;100306.97;;;19.16;54.02
60267;BME280;46125;61.360;-149.532;2023-07-13T08:08:45;100308.23;;;19.42;53.95
60267;BME280;46125;61.360;-149.532;2023-07-13T08:11:14;100308.40;;;18.21;56.45
60267;BME280;46125;61.360;-149.532;2023-07-13T08:13:42;100308.52;;;18.67;56.28
60267;BME280;46125;61.360;-149.532;2023-07-13T08:16:11;100306.23;;;18.94;56.05
60267;BME280;46125;61.360;-149.532;2023-07-13T08:18:39;100306.07;;;18.29;57.61
60267;BME280;46125;61.360;-149.532;2023-07-13T08:21:18;100307.96;;;18.63;57.83
60267;BME280;46125;61.360;-149.532;2023-07-13T08:23:46;100308.13;;;18.75;57.46
60267;BME280;46125;61.360;-149.532;2023-07-13T08:26:15;100308.15;;;18.84;57.15
60267;BME280;46125;61.360;-149.532;2023-07-13T08:28:43;100312.71;;;19.03;56.79
60267;BME280;46125;61.360;-149.532;2023-07-13T08:31:12;100311.28;;;18.94;56.20
60267;BME280;46125;61.360;-149.532;2023-07-13T08:33:40;100307.61;;;19.21;56.22
60267;BME280;46125;61.360;-149.532;2023-07-13T08:36:11;100309.16;;;18.97;56.51
60267;BME280;46125;61.360;-149.532;2023-07-13T08:38:40;100309.64;;;19.00;55.73
60267;BME280;46125;61.360;-149.532;2023-07-13T08:41:17;100313.71;;;19.36;54.83
60267;BME280;46125;61.360;-149.532;2023-07-13T08:43:49;100314.68;;;19.13;54.52
60267;BME280;46125;61.360;-149.532;2023-07-13T08:46:21;100311.95;;;19.30;53.97
60267;BME280;46125;61.360;-149.532;2023-07-13T08:48:53;100309.79;;;19.11;54.22
60267;BME280;46125;61.360;-149.532;2023-07-13T08:51:39;100308.98;;;19.25;53.96
60267;BME280;46125;61.360;-149.532;2023-07-13T08:54:16;100310.22;;;19.22;53.99
60267;BME280;46125;61.360;-149.532;2023-07-13T08:56:47;100308.60;;;18.79;53.85
60267;BME280;46125;61.360;-149.532;2023-07-13T08:59:18;100306.81;;;19.01;54.04
60267;BME280;46125;61.360;-149.532;2023-07-13T09:02:00;100307.47;;;19.30;54.35
60267;BME280;46125;61.360;-149.532;2023-07-13T09:04:39;100308.02;;;19.45;53.87
60267;BME280;46125;61.360;-149.532;2023-07-13T09:07:18;100307.74;;;19.18;54.38
60267;BME280;46125;61.360;-149.532;2023-07-13T09:10:00;100307.30;;;19.15;54.43
60267;BME280;46125;61.360;-149.532;2023-07-13T09:12:43;100307.91;;;19.15;54.61
60267;BME280;46125;61.360;-149.532;2023-07-13T09:15:28;100303.60;;;18.82;54.15
60267;BME280;46125;61.360;-149.532;2023-07-13T09:18:02;100304.08;;;19.01;54.16
60267;BME280;46125;61.360;-149.532;2023-07-13T09:20:35;100305.47;;;19.15;54.03
60267;BME280;46125;61.360;-149.532;2023-07-13T09:23:10;100304.98;;;19.28;54.12
60267;BME280;46125;61.360;-149.532;2023-07-13T09:25:41;100300.95;;;19.20;53.99
60267;BME280;46125;61.360;-149.532;2023-07-13T09:28:14;100302.74;;;19.25;53.66
60267;BME280;46125;61.360;-149.532;2023-07-13T09:30:49;100303.33;;;19.13;53.88
60267;BME280;46125;61.360;-149.532;2023-07-13T09:33:19;100304.53;;;18.97;54.09
60267;BME280;46125;61.360;-149.532;2023-07-13T09:35:48;100305.21;;;19.01;53.75
60267;BME280;46125;61.360;-149.532;2023-07-13T09:38:18;100303.73;;;19.08;53.50
60267;BME280;46125;61.360;-149.532;2023-07-13T09:40:58;100302.12;;;19.27;53.45
60267;BME280;46125;61.360;-149.532;2023-07-13T09:43:27;100300.55;;;19.21;53.72
60267;BME280;46125;61.360;-149.532;2023-07-13T09:45:56;100296.36;;;19.04;53.67
60267;BME280;46125;61.360;-149.532;2023-07-13T09:48:24;100297.21;;;19.22;53.61
60267;BME280;46125;61.360;-149.532;2023-07-13T09:50:56;100297.11;;;18.99;53.26
60267;BME280;46125;61.360;-149.532;2023-07-13T09:53:25;100297.12;;;19.02;53.44
60267;BME280;46125;61.360;-149.532;2023-07-13T09:55:59;100293.58;;;18.36;54.30
60267;BME280;46125;61.360;-149.532;2023-07-13T09:58:30;100290.33;;;18.94;53.92
60267;BME280;46125;61.360;-149.532;2023-07-13T10:01:01;100290.67;;;18.88;53.69
60267;BME280;46125;61.360;-149.532;2023-07-13T10:03:31;100287.89;;;18.84;53.53
60267;BME280;46125;61.360;-149.532;2023-07-13T10:06:11;100287.00;;;18.76;53.65
60267;BME280;46125;61.360;-149.532;2023-07-13T10:08:39;100288.11;;;18.92;53.05
60267;BME280;46125;61.360;-149.532;2023-07-13T10:11:13;100284.93;;;18.85;53.37
60267;BME280;46125;61.360;-149.532;2023-07-13T10:13:48;100282.84;;;18.89;52.91
60267;BME280;46125;61.360;-149.532;2023-07-13T10:16:18;100282.18;;;19.24;52.87
60267;BME280;46125;61.360;-149.532;2023-07-13T10:18:49;100280.16;;;19.07;52.15
60267;BME280;46125;61.360;-149.532;2023-07-13T10:21:20;100278.78;;;18.83;52.46
60267;BME280;46125;61.360;-149.532;2023-07-13T10:23:53;100278.47;;;18.93;51.93
60267;BME280;46125;61.360;-149.532;2023-07-13T10:26:26;100276.82;;;19.12;52.42
60267;BME280;46125;61.360;-149.532;2023-07-13T10:29:00;100275.54;;;19.10;52.96
60267;BME280;46125;61.360;-149.532;2023-07-13T10:31:31;100273.51;;;18.84;54.40
60267;BME280;46125;61.360;-149.532;2023-07-13T10:33:59;100272.83;;;19.23;53.95
60267;BME280;46125;61.360;-149.532;2023-07-13T10:36:33;100272.83;;;19.05;53.61
60267;BME280;46125;61.360;-149.532;2023-07-13T10:39:05;100272.30;;;19.10;52.27
60267;BME280;46125;61.360;-149.532;2023-07-13T10:41:37;100275.31;;;18.99;52.76
60267;BME280;46125;61.360;-149.532;2023-07-13T10:44:15;100275.59;;;19.09;52.87
60267;BME280;46125;61.360;-149.532;2023-07-13T10:46:46;100277.65;;;19.14;52.39
60267;BME280;46125;61.360;-149.532;2023-07-13T10:49:16;100277.75;;;19.03;53.56
60267;BME280;46125;61.360;-149.532;2023-07-13T10:51:45;100277.36;;;19.05;53.27
60267;BME280;46125;61.360;-149.532;2023-07-13T10:54:19;100278.53;;;19.03;53.10
60267;BME280;46125;61.360;-149.532;2023-07-13T10:56:52;100276.11;;;18.67;54.43
60267;BME280;46125;61.360;-149.532;2023-07-13T10:59:26;100274.78;;;18.67;54.72
60267;BME280;46125;61.360;-149.532;2023-07-13T11:01:58;100274.76;;;19.09;54.00
60267;BME280;46125;61.360;-149.532;2023-07-13T11:04:38;100277.86;;;19.15;53.84
60267;BME280;46125;61.360;-149.532;2023-07-13T11:07:18;100279.19;;;19.09;53.39
60267;BME280;46125;61.360;-149.532;2023-07-13T11:09:52;100279.48;;;18.83;52.54
60267;BME280;46125;61.360;-149.532;2023-07-13T11:12:54;100279.83;;;18.99;52.56
60267;BME280;46125;61.360;-149.532;2023-07-13T11:15:44;100279.75;;;19.02;52.59
60267;BME280;46125;61.360;-149.532;2023-07-13T11:18:22;100280.41;;;19.08;52.55
60267;BME280;46125;61.360;-149.532;2023-07-13T11:20:52;100279.53;;;18.88;52.50
60267;BME280;46125;61.360;-149.532;2023-07-13T11:23:43;100279.16;;;18.66;52.72
60267;BME280;46125;61.360;-149.532;2023-07-13T11:26:41;100280.58;;;18.78;52.78
60267;BME280;46125;61.360;-149.532;2023-07-13T11:29:32;100282.44;;;18.66;53.10
60267;BME280;46125;61.360;-149.532;2023-07-13T11:32:22;100283.75;;;18.68;53.14
60267;BME280;46125;61.360;-149.532;2023-07-13T11:34:51;100281.33;;;18.72;53.10
60267;BME280;46125;61.360;-149.532;2023-07-13T11:37:20;100280.89;;;18.75;53.11
60267;BME280;46125;61.360;-149.532;2023-07-13T11:39:52;100280.71;;;18.58;53.04
60267;BME280;46125;61.360;-149.532;2023-07-13T11:42:21;100278.41;;;18.86;53.08
60267;BME280;46125;61.360;-149.532;2023-07-13T11:44:52;100278.77;;;18.81;53.33
60267;BME280;46125;61.360;-149.532;2023-07-13T11:47:22;100277.60;;;18.70;54.04
60267;BME280;46125;61.360;-149.532;2023-07-13T11:49:52;100276.40;;;18.33;54.37
60267;BME280;46125;61.360;-149.532;2023-07-13T11:52:26;100279.07;;;18.35;54.41
60267;BME280;46125;61.360;-149.532;2023-07-13T11:54:57;100277.35;;;18.45;54.48
60267;BME280;46125;61.360;-149.532;2023-07-13T11:57:29;100279.02;;;18.89;54.25
60267;BME280;46125;61.360;-149.532;2023-07-13T12:00:00;100278.91;;;18.69;54.31
60267;BME280;46125;61.360;-149.532;2023-07-13T12:02:31;100278.29;;;18.73;54.22
60267;BME280;46125;61.360;-149.532;2023-07-13T12:05:02;100277.27;;;18.73;54.07
60267;BME280;46125;61.360;-149.532;2023-07-13T12:07:33;100273.91;;;18.60;53.80
60267;BME280;46125;61.360;-149.532;2023-07-13T12:10:02;100270.38;;;18.43;53.78
60267;BME280;46125;61.360;-149.532;2023-07-13T12:12:31;100269.60;;;18.20;52.94
60267;BME280;46125;61.360;-149.532;2023-07-13T12:14:59;100270.04;;;18.04;53.09
60267;BME280;46125;61.360;-149.532;2023-07-13T12:17:28;100271.61;;;17.97;53.84
60267;BME280;46125;61.360;-149.532;2023-07-13T12:19:57;100271.90;;;17.24;54.99
60267;BME280;46125;61.360;-149.532;2023-07-13T12:22:26;100271.62;;;17.30;54.79
60267;BME280;46125;61.360;-149.532;2023-07-13T12:24:55;100273.61;;;17.16;55.31
60267;BME280;46125;61.360;-149.532;2023-07-13T12:27:27;100276.85;;;17.16;55.44
60267;BME280;46125;61.360;-149.532;2023-07-13T12:30:00;100280.55;;;16.99;55.25
60267;BME280;46125;61.360;-149.532;2023-07-13T12:32:28;100281.44;;;16.94;55.49
60267;BME280;46125;61.360;-149.532;2023-07-13T12:35:14;100282.38;;;16.74;56.35
60267;BME280;46125;61.360;-149.532;2023-07-13T12:37:43;100286.18;;;16.30;58.17